sensor_id;sensor_type;location;lat;lon;timestamp;temperature;humidity
13652;DHT22;6899;51.546;6.912;2023-04-30T00:01:29;5.40;99.90
13652;DHT22;6899;51.546;6.912;2023-04-30T00:03:56;5.50;99.90
13652;DHT22;6899;51.546;6.912;2023-04-30T00:06:22;5.60;99.90
13652;DHT22;6899;51.546;6.912;2023-04-30T00:08:49;5.60;99.90
13652;DHT22;6899;51.546;6.912;2023-04-30T00:11:22;5.50;99.90
13652;DHT22;6899;51.546;6.912;2023-04-30T00:13:50;5.50;99.90
13652;DHT22;6899;51.546;6.912;2023-04-30T00:16:18;5.50;99.90
13652;DHT22;6899;51.546;6.912;2023-04-30T00:18:45;5.40;99.90
13652;DHT22;6899;51.546;6.912;2023-04-30T00:21:11;5.40;99.90
13652;DHT22;6899;51.546;6.912;2023-04-30T00:23:41;5.30;99.90
13652;DHT22;6899;51.546;6.912;2023-04-30T00:26:07;5.30;99.90
13652;DHT22;6899;51.546;6.912;2023-04-30T00:28:34;5.30;99.90
13652;DHT22;6899;51.546;6.912;2023-04-30T00:31:01;5.30;99.90
13652;DHT22;6899;51.546;6.912;2023-04-30T00:33:32;5.30;99.90
13652;DHT22;6899;51.546;6.912;2023-04-30T00:35:59;5.20;99.90
13652;DHT22;6899;51.546;6.912;2023-04-30T00:38:26;5.20;99.90
13652;DHT22;6899;51.546;6.912;2023-04-30T00:40:52;5.20;99.90
13652;DHT22;6899;51.546;6.912;2023-04-30T00:43:19;5.20;99.90
13652;DHT22;6899;51.546;6.912;2023-04-30T00:45:46;5.30;99.90
13652;DHT22;6899;51.546;6.912;2023-04-30T00:48:13;5.30;99.90
13652;DHT22;6899;51.546;6.912;2023-04-30T00:50:43;5.30;99.90
13652;DHT22;6899;51.546;6.912;2023-04-30T00:53:10;5.20;99.90
13652;DHT22;6899;51.546;6.912;2023-04-30T00:55:37;5.10;99.90
13652;DHT22;6899;51.546;6.912;2023-04-30T00:58:04;5.10;99.90
13652;DHT22;6899;51.546;6.912;2023-04-30T01:00:31;5.00;99.90
13652;DHT22;6899;51.546;6.912;2023-04-30T01:02:59;4.90;99.90
13652;DHT22;6899;51.546;6.912;2023-04-30T01:05:26;4.80;99.90
13652;DHT22;6899;51.546;6.912;2023-04-30T01:07:55;4.90;99.90
13652;DHT22;6899;51.546;6.912;2023-04-30T01:10:25;5.00;99.90
13652;DHT22;6899;51.546;6.912;2023-04-30T01:13:00;5.10;99.90
13652;DHT22;6899;51.546;6.912;2023-04-30T01:15:35;5.10;99.90
13652;DHT22;6899;51.546;6.912;2023-04-30T01:18:07;5.10;99.90
13652;DHT22;6899;51.546;6.912;2023-04-30T01:20:38;5.00;99.90
13652;DHT22;6899;51.546;6.912;2023-04-30T01:23:18;4.80;99.90
13652;DHT22;6899;51.546;6.912;2023-04-30T01:25:55;4.90;99.90
13652;DHT22;6899;51.546;6.912;2023-04-30T01:28:27;4.80;99.90
13652;DHT22;6899;51.546;6.912;2023-04-30T01:31:00;4.90;99.90
13652;DHT22;6899;51.546;6.912;2023-04-30T01:33:30;4.90;99.90
13652;DHT22;6899;51.546;6.912;2023-04-30T01:39:12;4.80;99.90
13652;DHT22;6899;51.546;6.912;2023-04-30T01:41:49;4.70;99.90
13652;DHT22;6899;51.546;6.912;2023-04-30T01:44:31;4.70;99.90
13652;DHT22;6899;51.546;6.912;2023-04-30T01:47:08;4.70;99.90
13652;DHT22;6899;51.546;6.912;2023-04-30T01:49:49;4.70;99.90
13652;DHT22;6899;51.546;6.912;2023-04-30T01:52:21;4.80;99.90
13652;DHT22;6899;51.546;6.912;2023-04-30T01:54:52;4.70;99.90
13652;DHT22;6899;51.546;6.912;2023-04-30T01:57:29;4.70;99.90
13652;DHT22;6899;51.546;6.912;2023-04-30T02:00:02;4.60;99.90
13652;DHT22;6899;51.546;6.912;2023-04-30T02:02:29;4.40;99.90
13652;DHT22;6899;51.546;6.912;2023-04-30T02:04:56;4.50;99.90
13652;DHT22;6899;51.546;6.912;2023-04-30T02:07:35;4.50;99.90
13652;DHT22;6899;51.546;6.912;2023-04-30T02:10:03;4.40;99.90
13652;DHT22;6899;51.546;6.912;2023-04-30T02:12:31;4.30;99.90
13652;DHT22;6899;51.546;6.912;2023-04-30T02:14:57;4.30;99.90
13652;DHT22;6899;51.546;6.912;2023-04-30T02:17:25;4.40;99.90
13652;DHT22;6899;51.546;6.912;2023-04-30T02:19:52;4.40;99.90
13652;DHT22;6899;51.546;6.912;2023-04-30T02:22:19;4.40;99.90
13652;DHT22;6899;51.546;6.912;2023-04-30T02:24:46;4.30;99.90
13652;DHT22;6899;51.546;6.912;2023-04-30T02:27:12;4.30;99.90
13652;DHT22;6899;51.546;6.912;2023-04-30T02:29:39;4.40;99.90
13652;DHT22;6899;51.546;6.912;2023-04-30T02:32:06;4.30;99.90
13652;DHT22;6899;51.546;6.912;2023-04-30T02:34:34;4.30;99.90
13652;DHT22;6899;51.546;6.912;2023-04-30T02:37:01;4.30;99.90
13652;DHT22;6899;51.546;6.912;2023-04-30T02:39:28;4.30;99.90
13652;DHT22;6899;51.546;6.912;2023-04-30T02:41:55;4.20;99.90
13652;DHT22;6899;51.546;6.912;2023-04-30T02:44:21;4.10;99.90
13652;DHT22;6899;51.546;6.912;2023-04-30T02:46:48;4.10;99.90
13652;DHT22;6899;51.546;6.912;2023-04-30T02:49:15;4.10;99.90
13652;DHT22;6899;51.546;6.912;2023-04-30T02:51:43;4.10;99.90
13652;DHT22;6899;51.546;6.912;2023-04-30T02:54:10;4.20;99.90
13652;DHT22;6899;51.546;6.912;2023-04-30T02:56:36;4.10;99.90
13652;DHT22;6899;51.546;6.912;2023-04-30T02:59:04;4.00;99.90
13652;DHT22;6899;51.546;6.912;2023-04-30T03:01:31;4.00;99.90
13652;DHT22;6899;51.546;6.912;2023-04-30T03:04:01;4.00;99.90
13652;DHT22;6899;51.546;6.912;2023-04-30T03:06:28;4.00;99.90
13652;DHT22;6899;51.546;6.912;2023-04-30T03:08:57;4.10;99.90
13652;DHT22;6899;51.546;6.912;2023-04-30T03:11:23;4.10;99.90
13652;DHT22;6899;51.546;6.912;2023-04-30T03:13:53;3.90;99.90
13652;DHT22;6899;51.546;6.912;2023-04-30T03:16:21;3.90;99.90
13652;DHT22;6899;51.546;6.912;2023-04-30T03:18:48;3.90;99.90
13652;DHT22;6899;51.546;6.912;2023-04-30T03:21:15;3.90;99.90
13652;DHT22;6899;51.546;6.912;2023-04-30T03:23:42;4.00;99.90
13652;DHT22;6899;51.546;6.912;2023-04-30T03:26:10;3.90;99.90
13652;DHT22;6899;51.546;6.912;2023-04-30T03:28:37;4.00;99.90
13652;DHT22;6899;51.546;6.912;2023-04-30T03:31:04;3.90;99.90
13652;DHT22;6899;51.546;6.912;2023-04-30T03:33:30;3.80;99.90
13652;DHT22;6899;51.546;6.912;2023-04-30T03:35:57;3.80;99.90
13652;DHT22;6899;51.546;6.912;2023-04-30T03:38:24;3.70;99.90
13652;DHT22;6899;51.546;6.912;2023-04-30T03:40:51;3.70;99.90
13652;DHT22;6899;51.546;6.912;2023-04-30T03:43:20;3.70;99.90
13652;DHT22;6899;51.546;6.912;2023-04-30T03:45:47;3.70;99.90
13652;DHT22;6899;51.546;6.912;2023-04-30T03:48:13;3.70;99.90
13652;DHT22;6899;51.546;6.912;2023-04-30T03:50:40;3.90;99.90
13652;DHT22;6899;51.546;6.912;2023-04-30T03:53:07;3.80;99.90
13652;DHT22;6899;51.546;6.912;2023-04-30T03:55:39;3.80;99.90
13652;DHT22;6899;51.546;6.912;2023-04-30T03:58:06;3.70;99.90
13652;DHT22;6899;51.546;6.912;2023-04-30T04:00:35;3.70;99.90
13652;DHT22;6899;51.546;6.912;2023-04-30T04:03:01;3.60;99.90
13652;DHT22;6899;51.546;6.912;2023-04-30T04:05:28;3.80;99.90
13652;DHT22;6899;51.546;6.912;2023-04-30T04:07:55;3.80;99.90
13652;DHT22;6899;51.546;6.912;2023-04-30T04:10:22;3.80;99.90
13652;DHT22;6899;51.546;6.912;2023-04-30T04:12:49;3.90;99.90
13652;DHT22;6899;51.546;6.912;2023-04-30T04:15:19;3.90;99.90
13652;DHT22;6899;51.546;6.912;2023-04-30T04:17:47;4.00;99.90
13652;DHT22;6899;51.546;6.912;2023-04-30T04:20:16;4.10;99.90
13652;DHT22;6899;51.546;6.912;2023-04-30T04:22:43;4.10;99.90
13652;DHT22;6899;51.546;6.912;2023-04-30T04:25:10;4.20;99.90
13652;DHT22;6899;51.546;6.912;2023-04-30T04:27:38;4.20;99.90
13652;DHT22;6899;51.546;6.912;2023-04-30T04:30:06;4.20;99.90
13652;DHT22;6899;51.546;6.912;2023-04-30T04:32:33;4.10;99.90
13652;DHT22;6899;51.546;6.912;2023-04-30T04:35:12;4.20;99.90
13652;DHT22;6899;51.546;6.912;2023-04-30T04:37:39;4.20;99.90
13652;DHT22;6899;51.546;6.912;2023-04-30T04:40:13;4.30;99.90
13652;DHT22;6899;51.546;6.912;2023-04-30T04:42:39;4.30;99.90
13652;DHT22;6899;51.546;6.912;2023-04-30T04:45:07;4.30;99.90
13652;DHT22;6899;51.546;6.912;2023-04-30T04:47:34;4.50;99.90
13652;DHT22;6899;51.546;6.912;2023-04-30T04:50:08;4.60;99.90
13652;DHT22;6899;51.546;6.912;2023-04-30T04:52:39;4.60;99.90
13652;DHT22;6899;51.546;6.912;2023-04-30T04:55:07;4.70;99.90
13652;DHT22;6899;51.546;6.912;2023-04-30T04:57:34;4.70;99.90
13652;DHT22;6899;51.546;6.912;2023-04-30T05:00:01;4.80;99.90
13652;DHT22;6899;51.546;6.912;2023-04-30T05:02:32;4.80;99.90
13652;DHT22;6899;51.546;6.912;2023-04-30T05:04:59;4.80;99.90
13652;DHT22;6899;51.546;6.912;2023-04-30T05:07:26;4.90;99.90
13652;DHT22;6899;51.546;6.912;2023-04-30T05:09:54;4.90;99.90
13652;DHT22;6899;51.546;6.912;2023-04-30T05:12:21;5.00;99.90
13652;DHT22;6899;51.546;6.912;2023-04-30T05:14:47;5.20;99.90
13652;DHT22;6899;51.546;6.912;2023-04-30T05:17:15;5.30;99.90
13652;DHT22;6899;51.546;6.912;2023-04-30T05:19:42;5.40;99.90
13652;DHT22;6899;51.546;6.912;2023-04-30T05:22:15;5.50;99.90
13652;DHT22;6899;51.546;6.912;2023-04-30T05:24:41;5.50;99.90
13652;DHT22;6899;51.546;6.912;2023-04-30T05:27:15;5.60;99.90
13652;DHT22;6899;51.546;6.912;2023-04-30T05:29:42;5.70;99.90
13652;DHT22;6899;51.546;6.912;2023-04-30T05:32:09;5.80;99.90
13652;DHT22;6899;51.546;6.912;2023-04-30T05:34:35;5.90;99.90
13652;DHT22;6899;51.546;6.912;2023-04-30T05:37:02;6.00;99.90
13652;DHT22;6899;51.546;6.912;2023-04-30T05:39:29;6.00;99.90
13652;DHT22;6899;51.546;6.912;2023-04-30T05:41:56;6.10;99.90
13652;DHT22;6899;51.546;6.912;2023-04-30T05:44:24;6.10;99.90
13652;DHT22;6899;51.546;6.912;2023-04-30T05:46:51;6.10;99.90
13652;DHT22;6899;51.546;6.912;2023-04-30T05:49:17;6.30;99.90
13652;DHT22;6899;51.546;6.912;2023-04-30T05:51:44;6.40;99.90
13652;DHT22;6899;51.546;6.912;2023-04-30T05:54:11;6.40;99.90
13652;DHT22;6899;51.546;6.912;2023-04-30T05:56:37;6.70;99.90
13652;DHT22;6899;51.546;6.912;2023-04-30T05:59:10;8.20;99.90
13652;DHT22;6899;51.546;6.912;2023-04-30T06:01:38;9.70;99.90
13652;DHT22;6899;51.546;6.912;2023-04-30T06:04:06;10.50;99.90
13652;DHT22;6899;51.546;6.912;2023-04-30T06:06:33;11.10;99.90
13652;DHT22;6899;51.546;6.912;2023-04-30T06:09:00;11.70;99.90
13652;DHT22;6899;51.546;6.912;2023-04-30T06:11:28;12.50;99.90
13652;DHT22;6899;51.546;6.912;2023-04-30T06:13:55;12.80;99.90
13652;DHT22;6899;51.546;6.912;2023-04-30T06:16:22;13.70;99.90
13652;DHT22;6899;51.546;6.912;2023-04-30T06:18:50;14.20;99.90
13652;DHT22;6899;51.546;6.912;2023-04-30T06:21:17;14.90;99.90
13652;DHT22;6899;51.546;6.912;2023-04-30T06:23:44;15.30;99.90
13652;DHT22;6899;51.546;6.912;2023-04-30T06:26:11;14.90;99.90
13652;DHT22;6899;51.546;6.912;2023-04-30T06:28:39;15.30;99.90
13652;DHT22;6899;51.546;6.912;2023-04-30T06:31:09;15.70;99.90
13652;DHT22;6899;51.546;6.912;2023-04-30T06:33:36;15.90;99.90
13652;DHT22;6899;51.546;6.912;2023-04-30T06:36:04;15.80;99.90
13652;DHT22;6899;51.546;6.912;2023-04-30T06:38:34;16.40;99.90
13652;DHT22;6899;51.546;6.912;2023-04-30T06:41:04;15.10;99.90
13652;DHT22;6899;51.546;6.912;2023-04-30T06:43:31;14.50;99.90
13652;DHT22;6899;51.546;6.912;2023-04-30T06:45:58;15.40;99.90
13652;DHT22;6899;51.546;6.912;2023-04-30T06:48:25;15.90;99.90
13652;DHT22;6899;51.546;6.912;2023-04-30T06:50:55;16.20;99.90
13652;DHT22;6899;51.546;6.912;2023-04-30T06:53:23;16.30;99.90
13652;DHT22;6899;51.546;6.912;2023-04-30T06:55:50;16.30;99.90
13652;DHT22;6899;51.546;6.912;2023-04-30T06:58:17;15.40;99.90
13652;DHT22;6899;51.546;6.912;2023-04-30T07:00:44;15.10;99.90
13652;DHT22;6899;51.546;6.912;2023-04-30T07:03:14;14.80;99.90
13652;DHT22;6899;51.546;6.912;2023-04-30T07:05:41;15.00;99.90
13652;DHT22;6899;51.546;6.912;2023-04-30T07:08:08;15.60;99.90
13652;DHT22;6899;51.546;6.912;2023-04-30T07:10:36;15.50;99.90
13652;DHT22;6899;51.546;6.912;2023-04-30T07:13:02;15.80;99.90
13652;DHT22;6899;51.546;6.912;2023-04-30T07:15:29;16.10;99.90
13652;DHT22;6899;51.546;6.912;2023-04-30T07:17:56;15.80;99.90
13652;DHT22;6899;51.546;6.912;2023-04-30T07:20:23;16.20;99.90
13652;DHT22;6899;51.546;6.912;2023-04-30T07:22:49;16.40;99.90
13652;DHT22;6899;51.546;6.912;2023-04-30T07:25:16;16.90;99.90
13652;DHT22;6899;51.546;6.912;2023-04-30T07:27:44;16.80;99.90
13652;DHT22;6899;51.546;6.912;2023-04-30T07:30:11;16.30;99.90
13652;DHT22;6899;51.546;6.912;2023-04-30T07:32:38;16.60;99.90
13652;DHT22;6899;51.546;6.912;2023-04-30T07:35:07;16.60;99.90
13652;DHT22;6899;51.546;6.912;2023-04-30T07:37:34;17.20;99.90
13652;DHT22;6899;51.546;6.912;2023-04-30T07:40:01;17.60;99.90
13652;DHT22;6899;51.546;6.912;2023-04-30T07:42:32;17.90;98.00
13652;DHT22;6899;51.546;6.912;2023-04-30T07:45:00;18.40;99.10
13652;DHT22;6899;51.546;6.912;2023-04-30T07:47:28;18.40;98.00
13652;DHT22;6899;51.546;6.912;2023-04-30T07:49:55;17.90;96.10
13652;DHT22;6899;51.546;6.912;2023-04-30T07:52:22;17.70;96.90
13652;DHT22;6899;51.546;6.912;2023-04-30T07:54:48;17.90;97.40
13652;DHT22;6899;51.546;6.912;2023-04-30T07:57:15;17.70;96.20
13652;DHT22;6899;51.546;6.912;2023-04-30T07:59:42;17.60;96.10
13652;DHT22;6899;51.546;6.912;2023-04-30T08:02:10;17.60;96.00
13652;DHT22;6899;51.546;6.912;2023-04-30T08:04:37;18.10;98.90
13652;DHT22;6899;51.546;6.912;2023-04-30T08:07:03;18.60;93.50
13652;DHT22;6899;51.546;6.912;2023-04-30T08:09:30;18.80;90.50
13652;DHT22;6899;51.546;6.912;2023-04-30T08:11:57;18.80;91.60
13652;DHT22;6899;51.546;6.912;2023-04-30T08:14:24;18.60;90.90
13652;DHT22;6899;51.546;6.912;2023-04-30T08:16:50;18.30;90.00
13652;DHT22;6899;51.546;6.912;2023-04-30T08:19:18;17.70;95.70
13652;DHT22;6899;51.546;6.912;2023-04-30T08:21:45;18.30;92.80
13652;DHT22;6899;51.546;6.912;2023-04-30T08:24:12;18.80;92.60
13652;DHT22;6899;51.546;6.912;2023-04-30T08:26:39;19.00;91.40
13652;DHT22;6899;51.546;6.912;2023-04-30T08:29:05;18.60;89.80
13652;DHT22;6899;51.546;6.912;2023-04-30T08:31:33;18.30;88.60
13652;DHT22;6899;51.546;6.912;2023-04-30T08:34:00;18.60;92.90
13652;DHT22;6899;51.546;6.912;2023-04-30T08:36:28;18.80;88.70
13652;DHT22;6899;51.546;6.912;2023-04-30T08:38:54;18.10;90.90
13652;DHT22;6899;51.546;6.912;2023-04-30T08:41:24;18.50;90.80
13652;DHT22;6899;51.546;6.912;2023-04-30T08:43:52;19.20;85.40
13652;DHT22;6899;51.546;6.912;2023-04-30T08:46:19;19.50;82.00
13652;DHT22;6899;51.546;6.912;2023-04-30T08:48:49;19.40;85.30
13652;DHT22;6899;51.546;6.912;2023-04-30T08:51:20;19.50;83.90
13652;DHT22;6899;51.546;6.912;2023-04-30T08:53:50;19.80;83.00
13652;DHT22;6899;51.546;6.912;2023-04-30T08:56:19;19.40;77.70
13652;DHT22;6899;51.546;6.912;2023-04-30T08:58:46;19.50;79.10
13652;DHT22;6899;51.546;6.912;2023-04-30T09:01:13;19.80;84.60
13652;DHT22;6899;51.546;6.912;2023-04-30T09:03:40;20.10;80.50
13652;DHT22;6899;51.546;6.912;2023-04-30T09:06:07;19.90;80.20
13652;DHT22;6899;51.546;6.912;2023-04-30T09:08:40;19.80;78.10
13652;DHT22;6899;51.546;6.912;2023-04-30T09:11:24;19.80;77.10
13652;DHT22;6899;51.546;6.912;2023-04-30T09:13:53;19.80;78.90
13652;DHT22;6899;51.546;6.912;2023-04-30T09:16:30;20.20;78.20
13652;DHT22;6899;51.546;6.912;2023-04-30T09:19:22;20.00;83.40
13652;DHT22;6899;51.546;6.912;2023-04-30T09:21:53;20.20;77.20
13652;DHT22;6899;51.546;6.912;2023-04-30T09:24:21;20.50;73.60
13652;DHT22;6899;51.546;6.912;2023-04-30T09:26:50;19.80;74.70
13652;DHT22;6899;51.546;6.912;2023-04-30T09:29:16;19.60;76.60
13652;DHT22;6899;51.546;6.912;2023-04-30T09:31:45;19.80;75.80
13652;DHT22;6899;51.546;6.912;2023-04-30T09:34:13;19.70;75.80
13652;DHT22;6899;51.546;6.912;2023-04-30T09:36:51;19.60;75.10
13652;DHT22;6899;51.546;6.912;2023-04-30T09:39:19;19.20;74.40
13652;DHT22;6899;51.546;6.912;2023-04-30T09:41:46;18.90;76.70
13652;DHT22;6899;51.546;6.912;2023-04-30T09:44:28;19.00;75.30
13652;DHT22;6899;51.546;6.912;2023-04-30T09:46:55;19.00;75.40
13652;DHT22;6899;51.546;6.912;2023-04-30T09:49:24;18.60;79.00
13652;DHT22;6899;51.546;6.912;2023-04-30T09:51:54;18.40;79.70
13652;DHT22;6899;51.546;6.912;2023-04-30T09:54:24;18.70;78.40
13652;DHT22;6899;51.546;6.912;2023-04-30T09:56:52;18.80;80.80
13652;DHT22;6899;51.546;6.912;2023-04-30T09:59:21;19.10;79.20
13652;DHT22;6899;51.546;6.912;2023-04-30T10:01:50;19.00;76.60
13652;DHT22;6899;51.546;6.912;2023-04-30T10:04:18;19.00;74.60
13652;DHT22;6899;51.546;6.912;2023-04-30T10:06:46;18.80;75.00
13652;DHT22;6899;51.546;6.912;2023-04-30T10:09:13;18.40;76.60
13652;DHT22;6899;51.546;6.912;2023-04-30T10:11:42;18.20;75.60
13652;DHT22;6899;51.546;6.912;2023-04-30T10:14:11;18.30;78.00
13652;DHT22;6899;51.546;6.912;2023-04-30T10:16:50;18.70;77.80
13652;DHT22;6899;51.546;6.912;2023-04-30T10:19:22;18.50;77.10
13652;DHT22;6899;51.546;6.912;2023-04-30T10:21:51;18.90;85.70
13652;DHT22;6899;51.546;6.912;2023-04-30T10:24:29;19.00;78.00
13652;DHT22;6899;51.546;6.912;2023-04-30T10:26:56;19.10;78.00
13652;DHT22;6899;51.546;6.912;2023-04-30T10:29:24;19.20;73.80
13652;DHT22;6899;51.546;6.912;2023-04-30T10:31:53;19.00;76.90
13652;DHT22;6899;51.546;6.912;2023-04-30T10:34:27;18.60;73.60
13652;DHT22;6899;51.546;6.912;2023-04-30T10:37:00;18.30;76.60
13652;DHT22;6899;51.546;6.912;2023-04-30T10:39:30;18.40;75.00
13652;DHT22;6899;51.546;6.912;2023-04-30T10:42:01;18.70;77.00
13652;DHT22;6899;51.546;6.912;2023-04-30T10:44:31;19.30;72.00
13652;DHT22;6899;51.546;6.912;2023-04-30T10:47:00;19.40;73.60
13652;DHT22;6899;51.546;6.912;2023-04-30T10:49:36;19.20;72.20
13652;DHT22;6899;51.546;6.912;2023-04-30T10:52:05;19.10;73.40
13652;DHT22;6899;51.546;6.912;2023-04-30T10:54:33;19.40;72.40
13652;DHT22;6899;51.546;6.912;2023-04-30T10:57:10;19.60;69.90
13652;DHT22;6899;51.546;6.912;2023-04-30T10:59:41;19.20;69.60
13652;DHT22;6899;51.546;6.912;2023-04-30T11:02:14;19.40;71.10
13652;DHT22;6899;51.546;6.912;2023-04-30T11:05:12;19.40;68.60
13652;DHT22;6899;51.546;6.912;2023-04-30T11:07:49;19.40;69.20
13652;DHT22;6899;51.546;6.912;2023-04-30T11:10:18;19.50;70.60
13652;DHT22;6899;51.546;6.912;2023-04-30T11:12:50;20.00;71.00
13652;DHT22;6899;51.546;6.912;2023-04-30T11:15:18;20.30;68.20
13652;DHT22;6899;51.546;6.912;2023-04-30T11:17:55;20.40;67.40
13652;DHT22;6899;51.546;6.912;2023-04-30T11:20:24;20.40;67.00
13652;DHT22;6899;51.546;6.912;2023-04-30T11:23:16;19.20;69.20
13652;DHT22;6899;51.546;6.912;2023-04-30T11:25:52;19.60;74.90
13652;DHT22;6899;51.546;6.912;2023-04-30T11:28:21;20.10;66.40
13652;DHT22;6899;51.546;6.912;2023-04-30T11:30:50;20.00;66.30
13652;DHT22;6899;51.546;6.912;2023-04-30T11:33:19;20.50;66.50
13652;DHT22;6899;51.546;6.912;2023-04-30T11:35:47;20.50;66.20
13652;DHT22;6899;51.546;6.912;2023-04-30T11:38:18;20.60;63.70
13652;DHT22;6899;51.546;6.912;2023-04-30T11:40:45;20.30;64.40
13652;DHT22;6899;51.546;6.912;2023-04-30T11:43:21;20.70;65.50
13652;DHT22;6899;51.546;6.912;2023-04-30T11:46:01;20.80;66.60
13652;DHT22;6899;51.546;6.912;2023-04-30T11:48:34;21.00;62.10
13652;DHT22;6899;51.546;6.912;2023-04-30T11:51:05;20.80;60.30
13652;DHT22;6899;51.546;6.912;2023-04-30T11:53:39;20.90;60.70
13652;DHT22;6899;51.546;6.912;2023-04-30T11:56:06;21.00;59.70
13652;DHT22;6899;51.546;6.912;2023-04-30T11:58:34;21.40;60.80
13652;DHT22;6899;51.546;6.912;2023-04-30T12:01:02;21.10;60.50
13652;DHT22;6899;51.546;6.912;2023-04-30T12:03:30;21.00;60.70
13652;DHT22;6899;51.546;6.912;2023-04-30T12:06:03;21.70;57.50
13652;DHT22;6899;51.546;6.912;2023-04-30T12:08:32;21.30;56.00
13652;DHT22;6899;51.546;6.912;2023-04-30T12:10:59;21.20;58.60
13652;DHT22;6899;51.546;6.912;2023-04-30T12:13:26;20.70;57.50
13652;DHT22;6899;51.546;6.912;2023-04-30T12:15:57;20.60;60.80
13652;DHT22;6899;51.546;6.912;2023-04-30T12:18:24;21.30;59.90
13652;DHT22;6899;51.546;6.912;2023-04-30T12:20:52;22.30;57.30
13652;DHT22;6899;51.546;6.912;2023-04-30T12:23:20;22.40;54.30
13652;DHT22;6899;51.546;6.912;2023-04-30T12:25:50;21.80;54.40
13652;DHT22;6899;51.546;6.912;2023-04-30T12:28:17;20.90;57.30
13652;DHT22;6899;51.546;6.912;2023-04-30T12:30:43;20.10;58.10
13652;DHT22;6899;51.546;6.912;2023-04-30T12:33:11;19.50;61.00
13652;DHT22;6899;51.546;6.912;2023-04-30T12:35:41;19.40;61.70
13652;DHT22;6899;51.546;6.912;2023-04-30T12:38:08;19.90;66.10
13652;DHT22;6899;51.546;6.912;2023-04-30T12:40:36;20.80;59.70
13652;DHT22;6899;51.546;6.912;2023-04-30T12:43:05;21.70;60.20
13652;DHT22;6899;51.546;6.912;2023-04-30T12:45:46;22.70;57.00
13652;DHT22;6899;51.546;6.912;2023-04-30T12:48:15;22.80;52.60
13652;DHT22;6899;51.546;6.912;2023-04-30T12:50:46;23.20;51.90
13652;DHT22;6899;51.546;6.912;2023-04-30T12:53:19;23.80;50.80
13652;DHT22;6899;51.546;6.912;2023-04-30T12:56:09;23.50;52.50
13652;DHT22;6899;51.546;6.912;2023-04-30T12:58:36;23.30;49.20
13652;DHT22;6899;51.546;6.912;2023-04-30T13:01:09;23.50;51.00
13652;DHT22;6899;51.546;6.912;2023-04-30T13:03:37;23.20;50.40
13652;DHT22;6899;51.546;6.912;2023-04-30T13:06:04;23.40;51.30
13652;DHT22;6899;51.546;6.912;2023-04-30T13:08:31;24.30;50.50
13652;DHT22;6899;51.546;6.912;2023-04-30T13:10:58;24.80;47.60
13652;DHT22;6899;51.546;6.912;2023-04-30T13:13:26;24.60;47.40
13652;DHT22;6899;51.546;6.912;2023-04-30T13:15:53;24.10;45.70
13652;DHT22;6899;51.546;6.912;2023-04-30T13:18:20;24.20;46.90
13652;DHT22;6899;51.546;6.912;2023-04-30T13:20:47;24.70;46.10
13652;DHT22;6899;51.546;6.912;2023-04-30T13:23:19;24.90;45.70
13652;DHT22;6899;51.546;6.912;2023-04-30T13:25:46;23.50;43.80
13652;DHT22;6899;51.546;6.912;2023-04-30T13:28:13;22.00;47.10
13652;DHT22;6899;51.546;6.912;2023-04-30T13:30:42;22.40;52.10
13652;DHT22;6899;51.546;6.912;2023-04-30T13:33:08;22.60;49.10
13652;DHT22;6899;51.546;6.912;2023-04-30T13:35:36;23.30;47.90
13652;DHT22;6899;51.546;6.912;2023-04-30T13:38:04;23.50;48.20
13652;DHT22;6899;51.546;6.912;2023-04-30T13:40:31;23.60;46.40
13652;DHT22;6899;51.546;6.912;2023-04-30T13:42:57;23.00;47.20
13652;DHT22;6899;51.546;6.912;2023-04-30T13:45:24;23.10;47.90
13652;DHT22;6899;51.546;6.912;2023-04-30T13:47:52;23.10;48.60
13652;DHT22;6899;51.546;6.912;2023-04-30T13:50:19;23.30;46.40
13652;DHT22;6899;51.546;6.912;2023-04-30T13:52:46;23.10;43.70
13652;DHT22;6899;51.546;6.912;2023-04-30T13:55:12;23.40;45.90
13652;DHT22;6899;51.546;6.912;2023-04-30T13:57:39;23.60;46.60
13652;DHT22;6899;51.546;6.912;2023-04-30T14:00:07;24.30;46.20
13652;DHT22;6899;51.546;6.912;2023-04-30T14:02:34;24.50;46.20
13652;DHT22;6899;51.546;6.912;2023-04-30T14:05:03;24.80;46.30
13652;DHT22;6899;51.546;6.912;2023-04-30T14:07:30;25.00;45.60
13652;DHT22;6899;51.546;6.912;2023-04-30T14:09:57;25.30;45.60
13652;DHT22;6899;51.546;6.912;2023-04-30T14:12:26;25.80;41.90
13652;DHT22;6899;51.546;6.912;2023-04-30T14:14:55;25.00;43.20
13652;DHT22;6899;51.546;6.912;2023-04-30T14:17:22;24.60;44.70
13652;DHT22;6899;51.546;6.912;2023-04-30T14:19:49;24.20;45.10
13652;DHT22;6899;51.546;6.912;2023-04-30T14:22:17;23.70;46.20
13652;DHT22;6899;51.546;6.912;2023-04-30T14:24:44;22.90;49.30
13652;DHT22;6899;51.546;6.912;2023-04-30T14:27:11;24.00;46.50
13652;DHT22;6899;51.546;6.912;2023-04-30T14:29:43;24.20;46.20
13652;DHT22;6899;51.546;6.912;2023-04-30T14:32:12;24.80;46.10
13652;DHT22;6899;51.546;6.912;2023-04-30T14:34:42;25.10;44.20
13652;DHT22;6899;51.546;6.912;2023-04-30T14:37:09;24.20;43.90
13652;DHT22;6899;51.546;6.912;2023-04-30T14:39:37;24.10;44.70
13652;DHT22;6899;51.546;6.912;2023-04-30T14:42:04;23.20;47.60
13652;DHT22;6899;51.546;6.912;2023-04-30T14:44:31;22.60;46.90
13652;DHT22;6899;51.546;6.912;2023-04-30T14:46:58;22.00;48.70
13652;DHT22;6899;51.546;6.912;2023-04-30T14:49:25;21.70;49.60
13652;DHT22;6899;51.546;6.912;2023-04-30T14:51:54;21.40;51.60
13652;DHT22;6899;51.546;6.912;2023-04-30T14:54:22;22.40;50.50
13652;DHT22;6899;51.546;6.912;2023-04-30T14:56:51;22.90;49.70
13652;DHT22;6899;51.546;6.912;2023-04-30T14:59:17;23.20;46.60
13652;DHT22;6899;51.546;6.912;2023-04-30T15:01:44;23.00;47.20
13652;DHT22;6899;51.546;6.912;2023-04-30T15:04:11;22.60;47.30
13652;DHT22;6899;51.546;6.912;2023-04-30T15:06:37;23.20;46.70
13652;DHT22;6899;51.546;6.912;2023-04-30T15:09:04;24.30;45.30
13652;DHT22;6899;51.546;6.912;2023-04-30T15:11:32;24.30;46.10
13652;DHT22;6899;51.546;6.912;2023-04-30T15:14:05;23.10;45.90
13652;DHT22;6899;51.546;6.912;2023-04-30T15:16:32;23.20;48.30
13652;DHT22;6899;51.546;6.912;2023-04-30T15:18:59;23.50;48.30
13652;DHT22;6899;51.546;6.912;2023-04-30T15:21:26;23.20;45.80
13652;DHT22;6899;51.546;6.912;2023-04-30T15:23:53;23.00;46.70
13652;DHT22;6899;51.546;6.912;2023-04-30T15:26:20;22.50;47.00
13652;DHT22;6899;51.546;6.912;2023-04-30T15:28:46;21.50;48.60
13652;DHT22;6899;51.546;6.912;2023-04-30T15:31:14;21.00;50.10
13652;DHT22;6899;51.546;6.912;2023-04-30T15:33:41;21.00;49.60
13652;DHT22;6899;51.546;6.912;2023-04-30T15:36:09;21.30;50.30
13652;DHT22;6899;51.546;6.912;2023-04-30T15:38:38;21.60;49.40
13652;DHT22;6899;51.546;6.912;2023-04-30T15:41:06;22.10;48.80
13652;DHT22;6899;51.546;6.912;2023-04-30T15:43:32;21.80;48.50
13652;DHT22;6899;51.546;6.912;2023-04-30T15:46:08;21.70;48.60
13652;DHT22;6899;51.546;6.912;2023-04-30T15:48:36;21.70;49.80
13652;DHT22;6899;51.546;6.912;2023-04-30T15:51:03;22.00;49.40
13652;DHT22;6899;51.546;6.912;2023-04-30T15:53:30;21.50;48.70
13652;DHT22;6899;51.546;6.912;2023-04-30T15:55:56;21.40;50.10
13652;DHT22;6899;51.546;6.912;2023-04-30T15:58:23;22.20;50.10
13652;DHT22;6899;51.546;6.912;2023-04-30T16:00:50;22.30;48.20
13652;DHT22;6899;51.546;6.912;2023-04-30T16:03:18;21.60;48.50
13652;DHT22;6899;51.546;6.912;2023-04-30T16:05:53;21.30;49.90